Search for airport 
image banner adimage banner ad
image banner ad

DFOB - Banfora

Located in , Burkina Faso

ICAO - DFOB, IATA - BNR

Data provided by Airmate  

General information

Coordinates: N10°41'0" W4°43'0"
Elevation is 984 feet MSL.
 
View others Airports in Comoe

Operational data

Open for public use
Current time UTC:
Current local time:
Weather at : DFOO - Bobo-Dioulasso ( 69 km )
METAR: DFOO 201400Z 08004KT 9999 FEW020 34/24 Q1012
TAF: TAF DFOO 201100Z 2012/2112 20008KT 9999 FEW020 TEMPO 2014/2022 4000 TSRA SCT020 FEW036CB
View NOTAMs / SUP AIP / TFR affecting this airport [VIEW]
Communications frequencies: [VIEW]

Runways:

Airport contact information

Address: Burkina Faso

Satellite view of DFOB